etsfs.com

SPEED LOG BR GSoares

SPEED LOG BR

Online ETSFS
  • Iniciou dia:: 2019-11-28 as :02:20:30
  • Finalizou dia: as:02:53:23
  • Saiu de:Rotterdam Empresa: TransiNet
  • Para: Kiel Empresa: Stokes
  • Carga:Patê de Fígado Pesando: 17 t. Frete :23729
  • Código Viagem:1804971
  • Fabricante:Mercedes-Benz Modelo:Actros
  • Combustivel Inicio/Fim: 415 L / 483 L / Consumo: 213 L - Media 2.87 KM/L
  • Odometro Inicio/Fim: 277228 / 277840
  • Distancia Estimada 615 Km Distancia Balsa: 0
  • km Rodado: 612 Km - Ponto$ : $30.6
  • Tempo Total da Viagem 32.00 Min. / Média de KM/Min : 19.13
Histórico Viagem
Data H.Jogo Vel. Odômetro RPM Marcha Diesel Engine Cabine Pneus Chassis Trailer
28/11/2019-02:20:27 09:47 0 277228 551.2792 -1 415 0 0 0 0 0 0
28/11/2019-02:23:00 10:03 96 277258 1331.132 12 402 0 0 0 0 0 0
28/11/2019-02:24:05 10:09 90 277288 1251.894 12 387 0 0 0 0 0 0
28/11/2019-02:25:09 10:15 87 277318 1217.535 12 379 0 0 0 0 0 0
28/11/2019-02:26:40 10:25 89 277348 1253.547 12 367 0 0 0 0 0 0
28/11/2019-02:27:43 10:31 89 277378 1252.924 12 359 0 0 0 1 0 0
28/11/2019-02:28:47 10:37 89 277408 1253.406 12 348 0 0 0 1 0 0
28/11/2019-02:29:51 10:44 86 277438 1567.443 11 335 0 0 0 1 0 0
28/11/2019-02:31:05 10:51 90 277468 1253.398 12 325 0 0 0 1 0 0
28/11/2019-02:32:26 10:59 65 277498 1162.731 11 319 0 0 0 1 0 0
28/11/2019-02:32:37 11:00 0 277501 470.4353 0 319 0 0 0 1 0 0
28/11/2019-02:39:01 11:39 89 277528 1259.143 12 301 0 0 0 1 0 0
28/11/2019-02:40:04 11:45 90 277558 1251.523 12 295 0 0 0 1 0 0
28/11/2019-02:41:07 11:51 90 277588 1253.538 12 288 0 0 0 1 0 0
28/11/2019-02:42:10 11:58 89 277618 1253.149 12 279 0 0 0 1 0 0
28/11/2019-02:43:54 12:08 33 277648 974.5156 9 550 0 0 0 1 0 0
28/11/2019-02:45:22 12:17 88 277678 1214.409 12 540 0 0 0 1 0 1
28/11/2019-02:45:22 12:17 88 277678 1212.078 12 540 0 0 0 1 0 1
28/11/2019-02:45:23 12:17 86 277678 1191.673 12 540 0 0 0 1 0 1
28/11/2019-02:46:39 12:24 89 277708 1237.567 12 527 0 0 0 1 0 1
28/11/2019-02:47:45 12:31 88 277738 1243.227 12 520 0 0 0 1 0 1
28/11/2019-02:48:54 12:38 72 277768 1300.632 11 510 0 0 0 1 0 1
28/11/2019-02:50:09 12:45 88 277798 1596.908 11 497 0 0 0 1 0 1
28/11/2019-02:51:13 12:52 79 277828 1089.143 12 490 0 0 0 1 0 1
28/11/2019-02:51:58 12:56 55 277837 1584.684 9 484 0 0 0 1 0 1
28/11/2019-02:53:24 13:04 0 277840 551.0759 -1 483 0 0 0 1 0 0
Multas
Data Jogo Hora Jogo Data Hora Limite Tolerância Vel. Multa
Não existe Multa

Sobre nós

Pensando na facilidade e comodidade de criar sua empresa virtual e armazenar seus registros, o etsfs passou a oferecer um aplicativo que ao executá-lo juntamente com um simulador descrito no menu,você poderá registrar suas viagens automaticamente em nosso site sem nenhum problema,FAÇA SEU REGISTRO!

Redes Sociais
Doações

Contatos